createdAt,value
2018-02-16T00:00:31.128Z,993.92
2018-02-16T00:01:31.121Z,993.93
2018-02-16T00:02:31.124Z,993.95
2018-02-16T00:03:31.119Z,993.97
2018-02-16T00:04:31.098Z,993.98
2018-02-16T00:05:31.091Z,993.97
2018-02-16T00:06:31.083Z,993.99
2018-02-16T00:07:31.075Z,993.93
2018-02-16T00:08:31.068Z,993.93
2018-02-16T00:09:31.061Z,993.98
2018-02-16T00:10:31.053Z,993.95
2018-02-16T00:11:31.046Z,993.96
2018-02-16T00:12:31.038Z,994
2018-02-16T00:13:31.034Z,994.05
2018-02-16T00:14:31.027Z,994.06
2018-02-16T00:15:31.017Z,994.14
2018-02-16T00:16:31.008Z,994.17
2018-02-16T00:17:31.001Z,994.2
2018-02-16T00:18:30.992Z,994.2
2018-02-16T00:19:30.988Z,994.22
2018-02-16T00:20:30.989Z,994.2
2018-02-16T00:21:30.977Z,994.2
2018-02-16T00:22:30.967Z,994.18
2018-02-16T00:23:30.957Z,994.19
2018-02-16T00:24:30.951Z,994.25
2018-02-16T00:25:30.943Z,994.22
2018-02-16T00:26:30.934Z,994.24
2018-02-16T00:27:30.931Z,994.21
2018-02-16T00:28:30.921Z,994.26
2018-02-16T00:29:30.913Z,994.28
2018-02-16T00:30:30.906Z,994.29
2018-02-16T00:31:30.899Z,994.28
2018-02-16T00:32:30.891Z,994.25
2018-02-16T00:33:30.884Z,994.22
2018-02-16T00:34:30.881Z,994.19
2018-02-16T00:35:30.870Z,994.17
2018-02-16T00:36:32.967Z,994.21
2018-02-16T00:37:30.854Z,994.26
2018-02-16T00:38:30.846Z,994.27
2018-02-16T00:39:30.838Z,994.34
2018-02-16T00:40:30.831Z,994.35
2018-02-16T00:41:30.835Z,994.34
2018-02-16T00:42:30.833Z,994.32
2018-02-16T00:43:30.809Z,994.25
2018-02-16T00:44:30.802Z,994.27
2018-02-16T00:45:30.795Z,994.17
2018-02-16T00:46:30.789Z,994.2
2018-02-16T00:47:30.779Z,994.09
2018-02-16T00:48:30.775Z,994.1
2018-02-16T00:49:30.775Z,994.09
2018-02-16T00:50:30.759Z,994.1
2018-02-16T00:51:30.752Z,994.09
2018-02-16T00:52:30.745Z,994.09
2018-02-16T00:53:30.740Z,994.04
2018-02-16T00:54:30.731Z,994.14
2018-02-16T00:55:30.722Z,994.18
2018-02-16T00:56:30.716Z,994.14
2018-02-16T00:57:30.708Z,994.15
2018-02-16T00:58:30.701Z,994.14
2018-02-16T00:59:30.694Z,994.11
2018-02-16T01:00:30.689Z,994.13
2018-02-16T01:01:30.680Z,994.14
2018-02-16T01:02:30.672Z,994.15
2018-02-16T01:03:30.665Z,994.16
2018-02-16T01:04:30.660Z,994.22
2018-02-16T01:05:30.655Z,994.25
2018-02-16T01:06:30.650Z,994.27
2018-02-16T01:07:30.643Z,994.3
2018-02-16T01:08:30.629Z,994.34
2018-02-16T01:09:30.632Z,994.3
2018-02-16T01:10:30.621Z,994.35
2018-02-16T01:11:30.617Z,994.38
2018-02-16T01:12:30.601Z,994.37
2018-02-16T01:13:30.610Z,994.36
2018-02-16T01:14:30.600Z,994.38
2018-02-16T01:15:30.581Z,994.33
2018-02-16T01:16:30.574Z,994.35
2018-02-16T01:17:30.595Z,994.33
2018-02-16T01:18:30.570Z,994.34
2018-02-16T01:19:30.564Z,994.28
2018-02-16T01:20:30.545Z,994.29
2018-02-16T01:21:30.540Z,994.34
2018-02-16T01:22:30.533Z,994.32
2018-02-16T01:23:30.528Z,994.34
2018-02-16T01:24:30.516Z,994.29
2018-02-16T01:25:30.508Z,994.33
2018-02-16T01:26:30.505Z,994.35
2018-02-16T01:27:30.494Z,994.33
2018-02-16T01:28:30.487Z,994.33
2018-02-16T01:29:30.480Z,994.36
2018-02-16T01:30:30.475Z,994.34
2018-02-16T01:31:30.465Z,994.33
2018-02-16T01:32:30.461Z,994.33
2018-02-16T01:33:30.452Z,994.37
2018-02-16T01:34:30.442Z,994.41
2018-02-16T01:35:30.436Z,994.45
2018-02-16T01:36:30.429Z,994.39
2018-02-16T01:37:30.423Z,994.45
2018-02-16T01:38:30.418Z,994.48
2018-02-16T01:39:30.407Z,994.54
2018-02-16T01:40:30.402Z,994.53
2018-02-16T01:41:30.393Z,994.57
2018-02-16T01:42:30.402Z,994.57
2018-02-16T01:43:30.387Z,994.64
2018-02-16T01:44:30.374Z,994.65
2018-02-16T01:45:30.366Z,994.67
2018-02-16T01:46:30.360Z,994.65
2018-02-16T01:47:30.350Z,994.69
2018-02-16T01:48:30.344Z,994.71
2018-02-16T01:49:30.339Z,994.71
2018-02-16T01:50:30.328Z,994.72
2018-02-16T01:51:30.321Z,994.75
2018-02-16T01:52:30.316Z,994.71
2018-02-16T01:53:30.308Z,994.72
2018-02-16T01:54:30.302Z,994.74
2018-02-16T01:55:30.294Z,994.73
2018-02-16T01:56:30.291Z,994.76
2018-02-16T01:57:30.291Z,994.82
2018-02-16T01:58:30.271Z,994.82
2018-02-16T01:59:30.265Z,994.83
2018-02-16T02:00:30.283Z,994.86
2018-02-16T02:01:30.249Z,994.83
2018-02-16T02:02:30.243Z,994.81
2018-02-16T02:03:30.237Z,994.8
2018-02-16T02:04:30.232Z,994.83
2018-02-16T02:05:30.235Z,994.84
2018-02-16T02:06:30.216Z,994.81
2018-02-16T02:07:30.208Z,994.84
2018-02-16T02:08:30.200Z,994.84
2018-02-16T02:09:30.196Z,994.77
2018-02-16T02:10:30.186Z,994.75
2018-02-16T02:11:30.180Z,994.74
2018-02-16T02:12:30.171Z,994.77
2018-02-16T02:13:30.165Z,994.78
2018-02-16T02:14:30.156Z,994.88
2018-02-16T02:15:30.149Z,994.92
2018-02-16T02:16:30.144Z,994.94
2018-02-16T02:17:30.936Z,995.01
2018-02-16T02:18:30.128Z,994.98
2018-02-16T02:19:30.126Z,994.98
2018-02-16T02:20:30.119Z,994.96
2018-02-16T02:21:30.119Z,994.96
2018-02-16T02:22:30.105Z,994.98
2018-02-16T02:23:30.097Z,994.95
2018-02-16T02:24:30.087Z,994.99
2018-02-16T02:25:30.080Z,994.98
2018-02-16T02:26:30.073Z,995
2018-02-16T02:27:30.068Z,994.99
2018-02-16T02:28:30.064Z,995.07
2018-02-16T02:29:30.051Z,995.04
2018-02-16T02:30:30.045Z,995
2018-02-16T02:31:30.045Z,995.03
2018-02-16T02:32:30.036Z,995.02
2018-02-16T02:33:30.023Z,995.02
2018-02-16T02:34:30.024Z,995.02
2018-02-16T02:35:30.017Z,995.02
2018-02-16T02:36:30.000Z,995.03
2018-02-16T02:37:29.997Z,994.97
2018-02-16T02:38:29.987Z,995
2018-02-16T02:39:29.982Z,995.01
2018-02-16T02:40:29.978Z,995.05
2018-02-16T02:41:29.965Z,994.98
2018-02-16T02:42:29.960Z,995.02
2018-02-16T02:43:29.952Z,995
2018-02-16T02:44:29.946Z,995.01
2018-02-16T02:45:29.938Z,994.99
2018-02-16T02:46:29.932Z,994.97
2018-02-16T02:47:29.926Z,994.97
2018-02-16T02:48:29.917Z,994.95
2018-02-16T02:49:29.914Z,995.01
2018-02-16T02:50:29.904Z,994.98
2018-02-16T02:51:29.896Z,995.02
2018-02-16T02:52:29.891Z,995
2018-02-16T02:53:29.884Z,995.01
2018-02-16T02:54:29.874Z,995.04
2018-02-16T02:55:29.867Z,995.07
2018-02-16T02:56:29.861Z,995.04
2018-02-16T02:57:29.855Z,995.02
2018-02-16T02:58:29.846Z,995.02
2018-02-16T02:59:29.840Z,995.02
2018-02-16T03:00:29.835Z,995.06
2018-02-16T03:01:29.826Z,995.12
2018-02-16T03:02:29.817Z,995.09
2018-02-16T03:03:29.811Z,995.08
2018-02-16T03:04:29.804Z,995.15
2018-02-16T03:05:30.075Z,995.19
2018-02-16T03:06:29.790Z,995.2
2018-02-16T03:07:29.782Z,995.21
2018-02-16T03:08:29.784Z,995.2
2018-02-16T03:09:29.769Z,995.17
2018-02-16T03:10:29.761Z,995.16
2018-02-16T03:11:29.760Z,995.2
2018-02-16T03:12:29.747Z,995.24
2018-02-16T03:13:29.739Z,995.23
2018-02-16T03:14:29.734Z,995.24
2018-02-16T03:15:29.727Z,995.23
2018-02-16T03:16:29.717Z,995.23
2018-02-16T03:17:29.710Z,995.29
2018-02-16T03:18:29.706Z,995.32
2018-02-16T03:19:29.697Z,995.36
2018-02-16T03:20:29.698Z,995.35
2018-02-16T03:21:29.682Z,995.41
2018-02-16T03:22:29.676Z,995.4
2018-02-16T03:23:29.668Z,995.44
2018-02-16T03:24:29.660Z,995.42
2018-02-16T03:25:29.653Z,995.39
2018-02-16T03:26:29.647Z,995.43
2018-02-16T03:27:29.645Z,995.45
2018-02-16T03:28:29.629Z,995.41
2018-02-16T03:29:29.623Z,995.4
2018-02-16T03:30:29.616Z,995.4
2018-02-16T03:31:29.611Z,995.44
2018-02-16T03:32:29.600Z,995.44
2018-02-16T03:33:29.593Z,995.55
2018-02-16T03:34:29.586Z,995.55
2018-02-16T03:35:29.581Z,995.57
2018-02-16T03:36:29.571Z,995.6
2018-02-16T03:37:29.564Z,995.65
2018-02-16T03:38:29.565Z,995.63
2018-02-16T03:39:29.548Z,995.67
2018-02-16T03:40:29.544Z,995.64
2018-02-16T03:41:29.535Z,995.63
2018-02-16T03:42:29.527Z,995.63
2018-02-16T03:43:29.521Z,995.64
2018-02-16T03:44:29.513Z,995.69
2018-02-16T03:45:29.505Z,995.76
2018-02-16T03:46:29.501Z,995.71
2018-02-16T03:47:29.500Z,995.72
2018-02-16T03:48:29.488Z,995.74
2018-02-16T03:49:29.475Z,995.75
2018-02-16T03:50:29.469Z,995.73
2018-02-16T03:51:29.461Z,995.71
2018-02-16T03:52:29.454Z,995.71
2018-02-16T03:53:29.449Z,995.75
2018-02-16T03:54:29.446Z,995.77
2018-02-16T03:55:29.445Z,995.75
2018-02-16T03:56:29.425Z,995.78
2018-02-16T03:57:29.418Z,995.78
2018-02-16T03:58:29.410Z,995.74
2018-02-16T03:59:29.404Z,995.8
2018-02-16T04:00:29.397Z,995.84
2018-02-16T04:01:29.390Z,995.8
2018-02-16T04:02:29.384Z,995.84
2018-02-16T04:03:29.376Z,995.85
2018-02-16T04:04:29.367Z,995.86
2018-02-16T04:05:29.365Z,995.84
2018-02-16T04:06:29.354Z,995.88
2018-02-16T04:07:29.347Z,995.94
2018-02-16T04:08:29.539Z,995.9
2018-02-16T04:09:29.332Z,995.87
2018-02-16T04:10:29.327Z,995.9
2018-02-16T04:11:29.318Z,995.88
2018-02-16T04:12:29.310Z,995.91
2018-02-16T04:13:29.303Z,995.92
2018-02-16T04:14:29.297Z,995.96
2018-02-16T04:15:29.288Z,995.97
2018-02-16T04:16:29.280Z,995.94
2018-02-16T04:17:29.274Z,995.98
2018-02-16T04:18:29.267Z,996.03
2018-02-16T04:19:29.260Z,996.08
2018-02-16T04:20:29.254Z,996.05
2018-02-16T04:21:29.245Z,996.03
2018-02-16T04:22:29.239Z,996.1
2018-02-16T04:23:29.234Z,996.03
2018-02-16T04:24:29.227Z,996.05
2018-02-16T04:25:29.224Z,996.05
2018-02-16T04:26:29.216Z,996.02
2018-02-16T04:27:29.205Z,996.08
2018-02-16T04:28:29.196Z,996.1
2018-02-16T04:29:29.187Z,996.16
2018-02-16T04:30:29.184Z,996.19
2018-02-16T04:31:29.174Z,996.18
2018-02-16T04:32:29.165Z,996.16
2018-02-16T04:33:29.161Z,996.12
2018-02-16T04:34:29.162Z,996.16
2018-02-16T04:35:29.144Z,996.17
2018-02-16T04:36:29.137Z,996.14
2018-02-16T04:37:29.131Z,996.15
2018-02-16T04:38:30.372Z,996.15
2018-02-16T04:39:29.114Z,996.17
2018-02-16T04:40:29.107Z,996.11
2018-02-16T04:41:29.106Z,996.12
2018-02-16T04:42:29.096Z,996.14
2018-02-16T04:43:29.109Z,996.1
2018-02-16T04:44:29.078Z,996.17
2018-02-16T04:45:29.071Z,996.16
2018-02-16T04:46:29.064Z,996.24
2018-02-16T04:47:29.057Z,996.28
2018-02-16T04:48:29.050Z,996.28
2018-02-16T04:49:29.045Z,996.32
2018-02-16T04:50:29.042Z,996.34
2018-02-16T04:51:29.031Z,996.33
2018-02-16T04:52:29.021Z,996.36
2018-02-16T04:53:29.013Z,996.43
2018-02-16T04:54:29.007Z,996.45
2018-02-16T04:55:29.000Z,996.42
2018-02-16T04:56:28.996Z,996.46
2018-02-16T04:57:28.987Z,996.37
2018-02-16T04:58:28.978Z,996.39
2018-02-16T04:59:28.970Z,996.47
2018-02-16T05:00:28.972Z,996.46
2018-02-16T05:01:28.957Z,996.47
2018-02-16T05:02:28.949Z,996.47
2018-02-16T05:03:28.945Z,996.53
2018-02-16T05:04:28.939Z,996.57
2018-02-16T05:05:28.928Z,996.6
2018-02-16T05:06:28.922Z,996.69
2018-02-16T05:07:28.914Z,996.71
2018-02-16T05:08:28.907Z,996.69
2018-02-16T05:09:28.901Z,996.77
2018-02-16T05:10:28.895Z,996.77
2018-02-16T05:11:28.894Z,996.84
2018-02-16T05:12:28.893Z,996.86
2018-02-16T05:13:28.870Z,996.91
2018-02-16T05:14:28.862Z,996.96
2018-02-16T05:15:28.859Z,996.96
2018-02-16T05:16:28.854Z,996.95
2018-02-16T05:17:28.841Z,996.94
2018-02-16T05:18:28.840Z,996.98
2018-02-16T05:19:28.837Z,996.99
2018-02-16T05:20:28.820Z,997.01
2018-02-16T05:21:28.812Z,997
2018-02-16T05:22:28.806Z,997.03
2018-02-16T05:23:28.799Z,997
2018-02-16T05:24:28.997Z,997.03
2018-02-16T05:25:28.783Z,997.05
2018-02-16T05:26:28.780Z,997.03
2018-02-16T05:27:28.777Z,997.1
2018-02-16T05:28:28.761Z,997.14
2018-02-16T05:29:28.753Z,997.09
2018-02-16T05:30:28.746Z,997.11
2018-02-16T05:31:28.748Z,997.14
2018-02-16T05:32:28.732Z,997.11
2018-02-16T05:33:28.723Z,997.09
2018-02-16T05:34:28.723Z,997.09
2018-02-16T05:35:28.709Z,997.07
2018-02-16T05:36:28.702Z,997.1
2018-02-16T05:37:28.695Z,997.14
2018-02-16T05:38:28.688Z,997.14
2018-02-16T05:39:28.682Z,997.12
2018-02-16T05:40:28.673Z,997.13
2018-02-16T05:41:28.666Z,997.14
2018-02-16T05:42:28.659Z,997.12
2018-02-16T05:43:28.656Z,997.17
2018-02-16T05:44:28.645Z,997.21
2018-02-16T05:45:28.640Z,997.18
2018-02-16T05:46:28.629Z,997.17
2018-02-16T05:47:28.622Z,997.26
2018-02-16T05:48:28.616Z,997.24
2018-02-16T05:49:28.610Z,997.28
2018-02-16T05:50:28.601Z,997.28
2018-02-16T05:51:28.592Z,997.24
2018-02-16T05:52:28.585Z,997.29
2018-02-16T05:53:28.580Z,997.25
2018-02-16T05:54:28.571Z,997.29
2018-02-16T05:55:28.565Z,997.34
2018-02-16T05:56:28.557Z,997.33
2018-02-16T05:57:28.551Z,997.33
2018-02-16T05:58:28.542Z,997.39
2018-02-16T05:59:28.536Z,997.4
2018-02-16T06:00:28.528Z,997.43
2018-02-16T06:01:28.520Z,997.51
2018-02-16T06:02:28.514Z,997.54
2018-02-16T06:03:28.507Z,997.51
2018-02-16T06:04:28.498Z,997.49
2018-02-16T06:05:28.509Z,997.5
2018-02-16T06:06:28.484Z,997.48
2018-02-16T06:07:28.482Z,997.53
2018-02-16T06:08:28.470Z,997.54
2018-02-16T06:09:28.463Z,997.5
2018-02-16T06:10:28.456Z,997.51
2018-02-16T06:11:28.448Z,997.5
2018-02-16T06:12:28.446Z,997.48
2018-02-16T06:13:28.436Z,997.49
2018-02-16T06:14:28.427Z,997.54
2018-02-16T06:15:28.419Z,997.58
2018-02-16T06:16:28.412Z,997.6
2018-02-16T06:17:28.405Z,997.62
2018-02-16T06:18:28.398Z,997.63
2018-02-16T06:19:28.390Z,997.69
2018-02-16T06:20:29.187Z,997.67
2018-02-16T06:21:28.376Z,997.65
2018-02-16T06:22:28.370Z,997.63
2018-02-16T06:23:28.361Z,997.64
2018-02-16T06:24:28.354Z,997.62
2018-02-16T06:25:28.352Z,997.7
2018-02-16T06:26:28.340Z,997.7
2018-02-16T06:27:28.333Z,997.75
2018-02-16T06:28:28.330Z,997.82
2018-02-16T06:29:28.319Z,997.8
2018-02-16T06:30:28.313Z,997.86
2018-02-16T06:31:28.306Z,997.88
2018-02-16T06:32:28.299Z,997.92
2018-02-16T06:33:28.295Z,997.9
2018-02-16T06:34:28.286Z,997.92
2018-02-16T06:35:28.282Z,998
2018-02-16T06:36:28.275Z,998.01
2018-02-16T06:37:28.262Z,998.02
2018-02-16T06:38:28.256Z,998.04
2018-02-16T06:39:28.249Z,998.04
2018-02-16T06:40:28.242Z,998.08
2018-02-16T06:41:28.235Z,998.1
2018-02-16T06:42:28.229Z,998.12
2018-02-16T06:43:28.222Z,998.17
2018-02-16T06:44:28.215Z,998.15
2018-02-16T06:45:28.207Z,998.15
2018-02-16T06:46:28.200Z,998.17
2018-02-16T06:47:28.193Z,998.18
2018-02-16T06:48:28.186Z,998.19
2018-02-16T06:49:28.186Z,998.2
2018-02-16T06:50:28.173Z,998.24
2018-02-16T06:51:28.166Z,998.22
2018-02-16T06:52:28.159Z,998.23
2018-02-16T06:53:28.152Z,998.25
2018-02-16T06:54:28.146Z,998.3
2018-02-16T06:55:28.138Z,998.35
2018-02-16T06:56:28.133Z,998.33
2018-02-16T06:57:28.126Z,998.32
2018-02-16T06:58:28.118Z,998.33
2018-02-16T06:59:28.111Z,998.32
2018-02-16T07:00:28.136Z,998.32
2018-02-16T07:01:28.098Z,998.31
2018-02-16T07:02:28.090Z,998.35
2018-02-16T07:03:28.084Z,998.37
2018-02-16T07:04:28.076Z,998.41
2018-02-16T07:05:28.070Z,998.43
2018-02-16T07:06:28.062Z,998.42
2018-02-16T07:07:28.103Z,998.44
2018-02-16T07:08:28.048Z,998.44
2018-02-16T07:09:28.042Z,998.47
2018-02-16T07:10:28.037Z,998.5
2018-02-16T07:11:28.028Z,998.49
2018-02-16T07:12:28.022Z,998.49
2018-02-16T07:13:28.015Z,998.49
2018-02-16T07:14:28.008Z,998.47
2018-02-16T07:15:28.001Z,998.49
2018-02-16T07:16:27.996Z,998.49
2018-02-16T07:17:27.988Z,998.51
2018-02-16T07:18:27.981Z,998.54
2018-02-16T07:19:27.977Z,998.54
2018-02-16T07:20:27.969Z,998.58
2018-02-16T07:21:27.960Z,998.6
2018-02-16T07:22:27.954Z,998.62
2018-02-16T07:23:27.950Z,998.67
2018-02-16T07:24:27.947Z,998.64
2018-02-16T07:25:27.937Z,998.6
2018-02-16T07:26:27.928Z,998.61
2018-02-16T07:27:27.922Z,998.59
2018-02-16T07:28:27.916Z,998.55
2018-02-16T07:29:27.910Z,998.56
2018-02-16T07:30:27.904Z,998.58
2018-02-16T07:31:27.897Z,998.6
2018-02-16T07:32:27.889Z,998.6
2018-02-16T07:33:27.886Z,998.64
2018-02-16T07:34:27.877Z,998.66
2018-02-16T07:35:27.872Z,998.63
2018-02-16T07:36:27.902Z,998.68
2018-02-16T07:37:27.860Z,998.72
2018-02-16T07:38:27.858Z,998.7
2018-02-16T07:39:27.851Z,998.69
2018-02-16T07:40:27.852Z,998.7
2018-02-16T07:41:28.167Z,998.71
2018-02-16T07:42:27.864Z,998.71
2018-02-16T07:43:27.854Z,998.73
2018-02-16T07:44:27.835Z,998.8
2018-02-16T07:45:27.830Z,998.74
2018-02-16T07:46:27.823Z,998.8
2018-02-16T07:47:27.838Z,998.85
2018-02-16T07:48:27.825Z,998.87
2018-02-16T07:49:27.782Z,998.94
2018-02-16T07:50:27.778Z,998.96
2018-02-16T07:51:27.768Z,998.96
2018-02-16T07:52:27.765Z,999.02
2018-02-16T07:53:27.757Z,999
2018-02-16T07:54:27.750Z,999.07
2018-02-16T07:55:27.746Z,999.09
2018-02-16T07:56:27.739Z,999.1
2018-02-16T07:57:27.732Z,999.13
2018-02-16T07:58:27.725Z,999.13
2018-02-16T07:59:27.719Z,999.14
2018-02-16T08:00:27.717Z,999.12
2018-02-16T08:01:27.706Z,999.09
2018-02-16T08:02:27.704Z,999.1
2018-02-16T08:03:27.694Z,999.12
2018-02-16T08:04:27.690Z,999.11
2018-02-16T08:05:27.681Z,999.12
2018-02-16T08:06:27.703Z,999.09
2018-02-16T08:07:27.721Z,999.13
2018-02-16T08:08:27.665Z,999.11
2018-02-16T08:09:27.661Z,999.12
2018-02-16T08:10:27.653Z,999.15
2018-02-16T08:11:27.645Z,999.17
2018-02-16T08:12:27.640Z,999.13
2018-02-16T08:13:27.632Z,999.17
2018-02-16T08:14:27.626Z,999.21
2018-02-16T08:15:27.623Z,999.24
2018-02-16T08:16:27.619Z,999.23
2018-02-16T08:17:27.607Z,999.22
2018-02-16T08:18:27.602Z,999.22
2018-02-16T08:19:27.596Z,999.27
2018-02-16T08:20:27.593Z,999.32
2018-02-16T08:21:27.586Z,999.32
2018-02-16T08:22:27.577Z,999.35
2018-02-16T08:23:27.571Z,999.37
2018-02-16T08:24:27.565Z,999.38
2018-02-16T08:25:27.562Z,999.38
2018-02-16T08:26:27.553Z,999.4
2018-02-16T08:27:27.546Z,999.42
2018-02-16T08:28:27.540Z,999.41
2018-02-16T08:29:27.548Z,999.44
2018-02-16T08:30:27.530Z,999.47
2018-02-16T08:31:27.526Z,999.47
2018-02-16T08:32:27.516Z,999.51
2018-02-16T08:33:27.510Z,999.54
2018-02-16T08:34:27.504Z,999.5
2018-02-16T08:35:27.498Z,999.56
2018-02-16T08:36:27.498Z,999.5
2018-02-16T08:37:27.485Z,999.53
2018-02-16T08:38:27.478Z,999.57
2018-02-16T08:39:27.472Z,999.56
2018-02-16T08:40:27.468Z,999.57
2018-02-16T08:41:27.459Z,999.6
2018-02-16T08:42:27.456Z,999.58
2018-02-16T08:43:27.449Z,999.61
2018-02-16T08:44:27.443Z,999.59
2018-02-16T08:45:27.440Z,999.59
2018-02-16T08:46:27.429Z,999.55
2018-02-16T08:47:27.424Z,999.6
2018-02-16T08:48:27.419Z,999.56
2018-02-16T08:49:27.412Z,999.62
2018-02-16T08:50:27.410Z,999.61
2018-02-16T08:51:27.402Z,999.65
2018-02-16T08:52:27.395Z,999.69
2018-02-16T08:53:27.388Z,999.68
2018-02-16T08:54:27.384Z,999.68
2018-02-16T08:55:27.381Z,999.67
2018-02-16T08:56:27.371Z,999.67
2018-02-16T08:57:27.368Z,999.68
2018-02-16T08:58:27.361Z,999.66
2018-02-16T08:59:27.355Z,999.68
2018-02-16T09:00:27.356Z,999.71
2018-02-16T09:01:27.346Z,999.68
2018-02-16T09:02:27.339Z,999.68
2018-02-16T09:03:27.332Z,999.67
2018-02-16T09:04:27.329Z,999.69
2018-02-16T09:05:27.321Z,999.68
2018-02-16T09:06:27.315Z,999.72
2018-02-16T09:07:27.308Z,999.72
2018-02-16T09:08:27.304Z,999.76
2018-02-16T09:09:27.301Z,999.77
2018-02-16T09:10:27.295Z,999.76
2018-02-16T09:11:27.506Z,999.83
2018-02-16T09:12:29.191Z,999.8
2018-02-16T09:13:27.300Z,999.83
2018-02-16T09:14:27.316Z,999.84
2018-02-16T09:15:27.271Z,999.83
2018-02-16T09:16:27.260Z,999.86
2018-02-16T09:17:27.255Z,999.84
2018-02-16T09:18:27.250Z,999.87
2018-02-16T09:19:27.246Z,999.87
2018-02-16T09:20:27.248Z,999.91
2018-02-16T09:21:27.239Z,999.9
2018-02-16T09:22:27.240Z,999.91
2018-02-16T09:23:27.240Z,999.93
2018-02-16T09:24:27.218Z,999.96
2018-02-16T09:25:27.213Z,999.97
2018-02-16T09:26:27.208Z,1000.01
2018-02-16T09:27:27.203Z,999.99
2018-02-16T09:28:27.200Z,999.94
2018-02-16T09:29:27.193Z,999.93
2018-02-16T09:30:27.192Z,999.95
2018-02-16T09:31:27.191Z,999.96
2018-02-16T09:32:27.180Z,999.97
2018-02-16T09:33:27.174Z,999.98
2018-02-16T09:34:27.171Z,999.93
2018-02-16T09:35:27.170Z,999.98
2018-02-16T09:36:27.164Z,999.94
2018-02-16T09:37:27.157Z,999.97
2018-02-16T09:38:27.153Z,999.97
2018-02-16T09:39:27.150Z,999.98
2018-02-16T09:40:27.147Z,1000
2018-02-16T09:41:27.142Z,999.99
2018-02-16T09:42:27.137Z,999.99
2018-02-16T09:43:27.134Z,1000.02
2018-02-16T09:44:27.131Z,1000.1
2018-02-16T09:45:27.141Z,1000.05
2018-02-16T09:46:27.123Z,1000.02
2018-02-16T09:47:27.120Z,1000.05
2018-02-16T09:48:27.116Z,1000.1
2018-02-16T09:49:27.112Z,1000.13
2018-02-16T09:50:27.111Z,1000.1
2018-02-16T09:51:27.106Z,1000.12
2018-02-16T09:52:27.102Z,1000.11
2018-02-16T09:53:27.104Z,1000.08
2018-02-16T09:54:27.097Z,1000.1
2018-02-16T09:55:27.095Z,1000.1
2018-02-16T09:56:27.089Z,1000.1
2018-02-16T09:57:27.089Z,1000.11
2018-02-16T09:58:27.083Z,1000.12
2018-02-16T09:59:27.080Z,1000.06
2018-02-16T10:00:27.080Z,1000.09
2018-02-16T10:01:27.074Z,1000.11
2018-02-16T10:02:27.069Z,1000.09
2018-02-16T10:03:27.068Z,1000.11
2018-02-16T10:04:27.065Z,1000.14
2018-02-16T10:05:27.065Z,1000.15
2018-02-16T10:06:27.059Z,1000.19
2018-02-16T10:07:27.057Z,1000.18
2018-02-16T10:08:27.056Z,1000.18
2018-02-16T10:09:27.058Z,1000.2
2018-02-16T10:10:27.048Z,1000.17
2018-02-16T10:11:27.043Z,1000.21
2018-02-16T10:12:27.043Z,1000.19
2018-02-16T10:13:27.037Z,1000.16
2018-02-16T10:14:27.035Z,1000.21
2018-02-16T10:15:27.033Z,1000.19
2018-02-16T10:16:27.029Z,1000.23
2018-02-16T10:17:27.025Z,1000.27
2018-02-16T10:18:27.029Z,1000.32
2018-02-16T10:19:27.020Z,1000.31
2018-02-16T10:20:27.016Z,1000.33
2018-02-16T10:21:27.013Z,1000.37
2018-02-16T10:22:27.008Z,1000.38
2018-02-16T10:23:27.006Z,1000.36
2018-02-16T10:24:27.002Z,1000.39
2018-02-16T10:25:27.001Z,1000.4
2018-02-16T10:55:11.370Z,1000.42
2018-02-16T10:56:08.714Z,1000.42
2018-02-16T10:57:08.697Z,1000.4
2018-02-16T10:58:08.694Z,1000.43
2018-02-16T10:59:08.693Z,1000.46
2018-02-16T11:00:08.951Z,1000.45
2018-02-16T11:01:08.672Z,1000.44
2018-02-16T11:02:08.647Z,1000.41
2018-02-16T11:03:08.638Z,1000.38
2018-02-16T11:04:08.632Z,1000.4
2018-02-16T11:05:08.934Z,1000.41
2018-02-16T11:06:08.621Z,1000.36
2018-02-16T11:07:08.616Z,1000.39
2018-02-16T11:08:08.610Z,1000.35
2018-02-16T11:09:08.603Z,1000.35
2018-02-16T11:10:08.868Z,1000.33
2018-02-16T11:11:08.595Z,1000.33
2018-02-16T11:12:08.590Z,1000.4
2018-02-16T11:13:08.584Z,1000.4
2018-02-16T11:14:08.579Z,1000.4
2018-02-16T11:15:08.826Z,1000.44
2018-02-16T11:16:08.570Z,1000.43
2018-02-16T11:17:08.565Z,1000.43
2018-02-16T11:18:08.560Z,1000.45
2018-02-16T11:19:08.559Z,1000.45
2018-02-16T11:20:08.770Z,1000.43
2018-02-16T11:21:08.547Z,1000.42
2018-02-16T11:22:08.543Z,1000.42
2018-02-16T11:23:08.540Z,1000.43
2018-02-16T11:24:08.533Z,1000.45
2018-02-16T11:25:08.779Z,1000.49
2018-02-16T11:26:08.527Z,1000.47
2018-02-16T11:27:08.523Z,1000.46
2018-02-16T11:28:08.516Z,1000.51
2018-02-16T11:29:08.510Z,1000.48
2018-02-16T11:30:08.794Z,1000.44
2018-02-16T11:31:08.501Z,1000.49
2018-02-16T11:32:08.500Z,1000.46
2018-02-16T11:33:08.493Z,1000.47
2018-02-16T11:34:08.496Z,1000.48
2018-02-16T11:35:08.757Z,1000.48
2018-02-16T11:36:08.478Z,1000.45
2018-02-16T11:37:08.475Z,1000.47
2018-02-16T11:38:08.468Z,1000.46
2018-02-16T11:39:08.465Z,1000.47
2018-02-16T11:40:08.783Z,1000.47
2018-02-16T11:41:08.662Z,1000.46
2018-02-16T11:42:08.455Z,1000.46
2018-02-16T11:43:08.445Z,1000.44
2018-02-16T11:44:08.442Z,1000.47
2018-02-16T11:45:08.583Z,1000.52
2018-02-16T11:46:08.434Z,1000.5
2018-02-16T11:47:08.429Z,1000.49
2018-02-16T11:48:08.427Z,1000.56
2018-02-16T11:49:08.420Z,1000.55
2018-02-16T11:50:08.570Z,1000.54
2018-02-16T11:51:08.411Z,1000.52
2018-02-16T11:52:08.407Z,1000.52
2018-02-16T11:53:08.401Z,1000.55
2018-02-16T11:54:08.400Z,1000.5
2018-02-16T11:55:08.621Z,1000.58
2018-02-16T11:56:09.242Z,1000.53
2018-02-16T11:57:08.385Z,1000.55
2018-02-16T11:58:08.381Z,1000.55
2018-02-16T11:59:08.378Z,1000.5
2018-02-16T12:00:08.599Z,1000.49
2018-02-16T12:01:08.374Z,1000.43
2018-02-16T12:02:08.368Z,1000.5
2018-02-16T12:03:08.365Z,1000.47
2018-02-16T12:04:08.359Z,1000.45
2018-02-16T12:05:08.558Z,1000.45
2018-02-16T12:06:08.350Z,1000.43
2018-02-16T12:07:08.351Z,1000.39
2018-02-16T12:08:08.389Z,1000.38
2018-02-16T12:09:08.341Z,1000.38
2018-02-16T12:10:08.584Z,1000.36
2018-02-16T12:11:08.332Z,1000.4
2018-02-16T12:12:08.329Z,1000.38
2018-02-16T12:13:08.339Z,1000.36
2018-02-16T12:14:08.322Z,1000.32
2018-02-16T12:15:08.604Z,1000.3
2018-02-16T12:16:08.314Z,1000.27
2018-02-16T12:17:08.312Z,1000.28
2018-02-16T12:18:08.310Z,1000.31
2018-02-16T12:19:08.303Z,1000.28
2018-02-16T12:20:08.511Z,1000.28
2018-02-16T12:21:08.295Z,1000.26
2018-02-16T12:22:08.292Z,1000.25
2018-02-16T12:23:08.288Z,1000.24
2018-02-16T12:24:08.283Z,1000.26
2018-02-16T12:25:08.493Z,1000.22
2018-02-16T12:26:08.278Z,1000.24
2018-02-16T12:27:08.271Z,1000.24
2018-02-16T12:28:08.272Z,1000.28
2018-02-16T12:29:08.271Z,1000.28
2018-02-16T12:30:08.368Z,1000.26
2018-02-16T12:31:08.258Z,1000.25
2018-02-16T12:32:08.255Z,1000.25
2018-02-16T12:33:08.252Z,1000.24
2018-02-16T12:34:08.246Z,1000.28
2018-02-16T12:35:08.492Z,1000.32
2018-02-16T12:36:08.239Z,1000.3
2018-02-16T12:37:08.241Z,1000.32
2018-02-16T12:38:08.230Z,1000.29
2018-02-16T12:39:08.228Z,1000.29
2018-02-16T12:40:08.375Z,1000.27
2018-02-16T12:41:08.220Z,1000.26
2018-02-16T12:42:08.223Z,1000.29
2018-02-16T12:43:08.220Z,1000.25
2018-02-16T12:44:08.209Z,1000.25
2018-02-16T12:45:08.446Z,1000.22
2018-02-16T12:46:08.204Z,1000.24
2018-02-16T12:47:08.200Z,1000.19
2018-02-16T12:48:08.196Z,1000.2
2018-02-16T12:49:08.199Z,1000.2
2018-02-16T12:50:08.441Z,1000.19
2018-02-16T12:51:08.188Z,1000.14
2018-02-16T12:52:08.185Z,1000.16
2018-02-16T12:53:08.181Z,1000.13
2018-02-16T12:54:08.181Z,1000.18
2018-02-16T12:55:08.446Z,1000.2